Hauptseite
METAR-TAF:

METAR-TAF

Flughäfen :

Flughafen Wallis Hihifo

Wallis, Frankreich

Breite: 13-14S, Länge: 176-10W, Höhe: 23 m

METAR: fehlend

Zeit: 21:04 (09:04 UTC)

Prognose

Neuester Wetterbericht von vor 4 Stunden und 4 Minuten, um 05:00 UTC
Gültige Prognose vom 14 um 06 UTC bis 15 um 06 UTC
Wind 5 kt aus Süd/Südost
Sichtweite 10 km oder mehr
Aufgelockert bewölkt in der Höhe von 2500 ft
Zeitweise
vom 14 um 06 UTC bis 15 um 06 UTC
Sichtweite: 4000 m
Durchbrochene Bewölkung in der Höhe von 1400 ft
Aufgelockert bewölkt in der Höhe von 1500 ft, Towering cumulus.
Regenschauer

TAF: NLWW 140500Z 1406/1506 15005KT 9999 SCT025 TEMPO 1406/1506 4000 SHRA BKN014 SCT015TCU

Wetterbeobachtungen und Prognosen von mehr als 4000 Flughäfen (METAR und TAF Bericht).

Die verfügbaren Stationen werden durch gelbe und rote Markierungen auf der Karte dargestellt.

Führen Sie die Maus auf sie, um den Namen der Station zu sehen.

Darauf klicken, um die Beobachtung von Wetterbeobachtungen und Prognosen zu sehen.

Um die Karte zu ändern : klicken Sie auf den grünen Tasten mit einem schwarzen Kreuz Zum Vergrößern, auf den grünen Button mit einem Gedankenstrich zu verkleinern, oder auf die grünen Pfeile für benachbarte Karten.


METAR-TAF: